sensor_id;sensor_type;location;lat;lon;timestamp;pressure;altitude;pressure_sealevel;temperature;humidity
68508;BME280;55510;49.560;19.090;2023-03-18T00:00:49;96660.31;;;-1.58;72.53
68508;BME280;55510;49.560;19.090;2023-03-18T00:03:52;96655.56;;;-1.63;72.92
68508;BME280;55510;49.560;19.090;2023-03-18T00:06:53;96651.50;;;-1.66;72.79
68508;BME280;55510;49.560;19.090;2023-03-18T00:09:54;96648.22;;;-1.68;73.32
68508;BME280;55510;49.560;19.090;2023-03-18T00:12:58;96644.31;;;-1.72;73.79
68508;BME280;55510;49.560;19.090;2023-03-18T00:16:00;96647.53;;;-1.78;74.06
68508;BME280;55510;49.560;19.090;2023-03-18T00:19:01;96646.88;;;-1.80;74.22
68508;BME280;55510;49.560;19.090;2023-03-18T00:22:02;96647.84;;;-1.81;73.68
68508;BME280;55510;49.560;19.090;2023-03-18T00:25:05;96640.41;;;-1.76;73.33
68508;BME280;55510;49.560;19.090;2023-03-18T00:28:07;96645.94;;;-1.71;73.16
68508;BME280;55510;49.560;19.090;2023-03-18T00:31:09;96637.78;;;-1.68;73.80
68508;BME280;55510;49.560;19.090;2023-03-18T00:34:11;96637.47;;;-1.65;73.48
68508;BME280;55510;49.560;19.090;2023-03-18T00:37:13;96636.97;;;-1.68;73.09
68508;BME280;55510;49.560;19.090;2023-03-18T00:40:19;96635.66;;;-1.72;73.41
68508;BME280;55510;49.560;19.090;2023-03-18T00:43:28;96636.81;;;-1.75;73.62
68508;BME280;55510;49.560;19.090;2023-03-18T00:46:35;96632.84;;;-1.79;74.09
68508;BME280;55510;49.560;19.090;2023-03-18T00:49:36;96629.44;;;-1.80;74.11
68508;BME280;55510;49.560;19.090;2023-03-18T00:52:38;96631.06;;;-1.79;74.80
68508;BME280;55510;49.560;19.090;2023-03-18T00:55:39;96631.22;;;-1.80;74.61
68508;BME280;55510;49.560;19.090;2023-03-18T00:58:40;96635.47;;;-1.79;74.48
68508;BME280;55510;49.560;19.090;2023-03-18T01:01:41;96631.06;;;-1.79;74.72
68508;BME280;55510;49.560;19.090;2023-03-18T01:04:42;96625.84;;;-1.79;73.89
68508;BME280;55510;49.560;19.090;2023-03-18T01:07:44;96627.50;;;-1.78;74.08
68508;BME280;55510;49.560;19.090;2023-03-18T01:10:44;96616.22;;;-1.78;74.47
68508;BME280;55510;49.560;19.090;2023-03-18T01:13:45;96618.19;;;-1.80;74.39
68508;BME280;55510;49.560;19.090;2023-03-18T01:16:46;96616.53;;;-1.81;74.02
68508;BME280;55510;49.560;19.090;2023-03-18T01:19:46;96608.38;;;-1.86;74.24
68508;BME280;55510;49.560;19.090;2023-03-18T01:22:48;96616.38;;;-1.88;74.48
68508;BME280;55510;49.560;19.090;2023-03-18T01:25:49;96614.91;;;-1.91;74.63
68508;BME280;55510;49.560;19.090;2023-03-18T01:28:50;96606.59;;;-1.94;75.41
68508;BME280;55510;49.560;19.090;2023-03-18T01:31:52;96609.34;;;-1.96;75.11
68508;BME280;55510;49.560;19.090;2023-03-18T01:34:54;96606.06;;;-1.98;75.25
68508;BME280;55510;49.560;19.090;2023-03-18T01:37:54;96605.41;;;-2.00;75.04
68508;BME280;55510;49.560;19.090;2023-03-18T01:40:57;96606.91;;;-1.97;75.20
68508;BME280;55510;49.560;19.090;2023-03-18T01:43:58;96597.59;;;-2.00;74.77
68508;BME280;55510;49.560;19.090;2023-03-18T01:47:02;96598.72;;;-2.02;74.86
68508;BME280;55510;49.560;19.090;2023-03-18T01:50:02;96607.38;;;-2.02;75.00
68508;BME280;55510;49.560;19.090;2023-03-18T01:53:11;96599.53;;;-2.02;75.24
68508;BME280;55510;49.560;19.090;2023-03-18T01:56:13;96598.41;;;-1.99;74.99
68508;BME280;55510;49.560;19.090;2023-03-18T01:59:20;96599.53;;;-2.02;75.11
68508;BME280;55510;49.560;19.090;2023-03-18T02:02:22;96599.69;;;-2.04;74.76
68508;BME280;55510;49.560;19.090;2023-03-18T02:05:25;96601.84;;;-1.99;74.68
68508;BME280;55510;49.560;19.090;2023-03-18T02:08:26;96599.88;;;-1.97;74.11
68508;BME280;55510;49.560;19.090;2023-03-18T02:11:30;96602.50;;;-1.97;74.30
68508;BME280;55510;49.560;19.090;2023-03-18T02:14:31;96599.09;;;-1.97;74.05
68508;BME280;55510;49.560;19.090;2023-03-18T02:17:36;96600.06;;;-1.98;73.81
68508;BME280;55510;49.560;19.090;2023-03-18T02:24:35;96602.16;;;-1.94;74.24
68508;BME280;55510;49.560;19.090;2023-03-18T02:27:41;96596.47;;;-1.97;73.95
68508;BME280;55510;49.560;19.090;2023-03-18T02:30:51;96599.53;;;-2.02;74.53
68508;BME280;55510;49.560;19.090;2023-03-18T02:33:53;96593.50;;;-2.02;74.42
68508;BME280;55510;49.560;19.090;2023-03-18T02:36:58;96599.03;;;-2.06;74.39
68508;BME280;55510;49.560;19.090;2023-03-18T02:40:32;96595.97;;;-2.01;73.88
68508;BME280;55510;49.560;19.090;2023-03-18T02:43:34;96596.31;;;-1.96;73.54
68508;BME280;55510;49.560;19.090;2023-03-18T02:49:47;96599.53;;;-2.02;74.18
68508;BME280;55510;49.560;19.090;2023-03-18T02:52:48;96594.00;;;-2.07;74.15
68508;BME280;55510;49.560;19.090;2023-03-18T02:55:49;96597.56;;;-2.08;74.15
68508;BME280;55510;49.560;19.090;2023-03-18T02:58:50;96599.84;;;-2.13;74.38
68508;BME280;55510;49.560;19.090;2023-03-18T03:01:53;96604.41;;;-2.15;74.63
68508;BME280;55510;49.560;19.090;2023-03-18T03:04:54;96607.34;;;-2.10;74.73
68508;BME280;55510;49.560;19.090;2023-03-18T03:07:55;96606.19;;;-2.16;74.35
68508;BME280;55510;49.560;19.090;2023-03-18T03:10:56;96616.47;;;-2.14;74.68
68508;BME280;55510;49.560;19.090;2023-03-18T03:13:57;96609.41;;;-2.22;75.04
68508;BME280;55510;49.560;19.090;2023-03-18T03:16:58;96607.94;;;-2.25;75.16
68508;BME280;55510;49.560;19.090;2023-03-18T03:19:59;96613.13;;;-2.33;75.09
68508;BME280;55510;49.560;19.090;2023-03-18T03:23:01;96617.84;;;-2.37;75.06
68508;BME280;55510;49.560;19.090;2023-03-18T03:26:03;96612.78;;;-2.38;75.17
68508;BME280;55510;49.560;19.090;2023-03-18T03:29:04;96616.03;;;-2.36;75.57
68508;BME280;55510;49.560;19.090;2023-03-18T03:32:06;96618.28;;;-2.41;75.31
68508;BME280;55510;49.560;19.090;2023-03-18T03:35:07;96614.88;;;-2.42;75.52
68508;BME280;55510;49.560;19.090;2023-03-18T03:38:09;96613.53;;;-2.46;76.08
68508;BME280;55510;49.560;19.090;2023-03-18T03:41:12;96616.97;;;-2.45;76.01
68508;BME280;55510;49.560;19.090;2023-03-18T03:44:13;96609.03;;;-2.36;75.43
68508;BME280;55510;49.560;19.090;2023-03-18T03:47:13;96613.75;;;-2.39;75.64
68508;BME280;55510;49.560;19.090;2023-03-18T03:50:17;96618.47;;;-2.43;75.31
68508;BME280;55510;49.560;19.090;2023-03-18T03:53:19;96613.03;;;-2.50;75.97
68508;BME280;55510;49.560;19.090;2023-03-18T03:56:20;96619.69;;;-2.55;76.18
68508;BME280;55510;49.560;19.090;2023-03-18T03:59:21;96618.22;;;-2.58;76.54
68508;BME280;55510;49.560;19.090;2023-03-18T04:02:22;96618.72;;;-2.54;76.56
68508;BME280;55510;49.560;19.090;2023-03-18T04:05:24;96610.72;;;-2.61;76.54
68508;BME280;55510;49.560;19.090;2023-03-18T04:08:25;96610.06;;;-2.63;76.75
68508;BME280;55510;49.560;19.090;2023-03-18T04:11:26;96606.31;;;-2.60;76.81
68508;BME280;55510;49.560;19.090;2023-03-18T04:14:27;96601.72;;;-2.67;77.01
68508;BME280;55510;49.560;19.090;2023-03-18T04:17:27;96605.09;;;-2.74;76.50
68508;BME280;55510;49.560;19.090;2023-03-18T04:20:29;96606.66;;;-2.82;77.09
68508;BME280;55510;49.560;19.090;2023-03-18T04:23:29;96608.09;;;-2.87;77.00
68508;BME280;55510;49.560;19.090;2023-03-18T04:26:32;96604.47;;;-2.95;77.72
68508;BME280;55510;49.560;19.090;2023-03-18T04:29:33;96612.41;;;-3.04;77.74
68508;BME280;55510;49.560;19.090;2023-03-18T04:32:34;96609.56;;;-3.11;78.31
68508;BME280;55510;49.560;19.090;2023-03-18T04:35:34;96600.44;;;-3.15;78.61
68508;BME280;55510;49.560;19.090;2023-03-18T04:38:35;96604.38;;;-3.11;78.66
68508;BME280;55510;49.560;19.090;2023-03-18T04:41:36;96603.03;;;-3.15;78.41
68508;BME280;55510;49.560;19.090;2023-03-18T04:44:37;96608.53;;;-3.18;78.89
68508;BME280;55510;49.560;19.090;2023-03-18T04:47:38;96609.53;;;-3.19;78.97
68508;BME280;55510;49.560;19.090;2023-03-18T04:50:39;96613.22;;;-3.22;79.02
68508;BME280;55510;49.560;19.090;2023-03-18T04:53:40;96608.19;;;-3.24;79.47
68508;BME280;55510;49.560;19.090;2023-03-18T04:56:41;96612.56;;;-3.24;79.19
68508;BME280;55510;49.560;19.090;2023-03-18T04:59:43;96616.81;;;-3.23;79.48
68508;BME280;55510;49.560;19.090;2023-03-18T05:02:44;96614.84;;;-3.21;79.75
68508;BME280;55510;49.560;19.090;2023-03-18T05:05:45;96615.22;;;-3.16;79.10
68508;BME280;55510;49.560;19.090;2023-03-18T05:08:46;96613.59;;;-3.17;79.36
68508;BME280;55510;49.560;19.090;2023-03-18T05:11:47;96617.81;;;-3.16;79.61
68508;BME280;55510;49.560;19.090;2023-03-18T05:14:47;96630.53;;;-3.13;79.20
68508;BME280;55510;49.560;19.090;2023-03-18T05:17:48;96636.41;;;-3.11;79.84
68508;BME280;55510;49.560;19.090;2023-03-18T05:20:49;96623.13;;;-3.08;79.50
68508;BME280;55510;49.560;19.090;2023-03-18T05:23:49;96623.47;;;-3.02;79.04
68508;BME280;55510;49.560;19.090;2023-03-18T05:26:50;96622.88;;;-2.96;79.04
68508;BME280;55510;49.560;19.090;2023-03-18T05:29:51;96624.34;;;-2.94;79.04
68508;BME280;55510;49.560;19.090;2023-03-18T05:32:52;96618.97;;;-2.92;79.19
68508;BME280;55510;49.560;19.090;2023-03-18T05:35:53;96630.06;;;-2.90;79.08
68508;BME280;55510;49.560;19.090;2023-03-18T05:38:54;96620.00;;;-2.85;79.34
68508;BME280;55510;49.560;19.090;2023-03-18T05:41:54;96622.81;;;-2.78;78.71
68508;BME280;55510;49.560;19.090;2023-03-18T05:44:56;96622.56;;;-2.67;78.90
68508;BME280;55510;49.560;19.090;2023-03-18T05:47:57;96624.91;;;-2.55;78.58
68508;BME280;55510;49.560;19.090;2023-03-18T05:50:58;96620.25;;;-2.43;77.82
68508;BME280;55510;49.560;19.090;2023-03-18T05:53:58;96621.75;;;-2.33;78.05
68508;BME280;55510;49.560;19.090;2023-03-18T05:56:59;96623.63;;;-2.16;77.38
68508;BME280;55510;49.560;19.090;2023-03-18T06:00:00;96617.16;;;-2.04;76.30
68508;BME280;55510;49.560;19.090;2023-03-18T06:03:01;96616.03;;;-1.93;75.53
68508;BME280;55510;49.560;19.090;2023-03-18T16:19:34;96512.50;;;11.74;22.07
68508;BME280;55510;49.560;19.090;2023-03-18T16:22:35;96508.00;;;11.53;22.70
68508;BME280;55510;49.560;19.090;2023-03-18T16:25:35;96502.84;;;11.29;23.83
68508;BME280;55510;49.560;19.090;2023-03-18T16:28:36;96505.81;;;11.10;24.32
68508;BME280;55510;49.560;19.090;2023-03-18T16:31:37;96509.66;;;10.85;24.62
68508;BME280;55510;49.560;19.090;2023-03-18T16:34:37;96516.84;;;10.68;24.79
68508;BME280;55510;49.560;19.090;2023-03-18T16:37:39;96521.25;;;10.45;25.40
68508;BME280;55510;49.560;19.090;2023-03-18T16:40:40;96515.06;;;10.27;26.37
68508;BME280;55510;49.560;19.090;2023-03-18T16:43:40;96521.03;;;10.06;26.80
68508;BME280;55510;49.560;19.090;2023-03-18T16:46:46;96529.75;;;9.89;26.95
68508;BME280;55510;49.560;19.090;2023-03-18T16:49:47;96530.94;;;9.69;27.24
68508;BME280;55510;49.560;19.090;2023-03-18T16:52:49;96530.72;;;9.47;28.32
68508;BME280;55510;49.560;19.090;2023-03-18T16:55:53;96532.13;;;9.26;28.68
68508;BME280;55510;49.560;19.090;2023-03-18T16:58:57;96536.97;;;9.05;29.13
68508;BME280;55510;49.560;19.090;2023-03-18T17:01:59;96528.66;;;8.90;28.97
68508;BME280;55510;49.560;19.090;2023-03-18T17:05:00;96531.97;;;8.73;29.37
68508;BME280;55510;49.560;19.090;2023-03-18T17:08:01;96525.75;;;8.67;30.11
68508;BME280;55510;49.560;19.090;2023-03-18T17:11:02;96532.50;;;8.51;30.36
68508;BME280;55510;49.560;19.090;2023-03-18T17:14:03;96532.31;;;8.34;30.94
68508;BME280;55510;49.560;19.090;2023-03-18T17:17:07;96535.53;;;8.06;32.18
68508;BME280;55510;49.560;19.090;2023-03-18T17:20:19;96538.78;;;7.89;32.41
68508;BME280;55510;49.560;19.090;2023-03-18T17:23:25;96542.84;;;7.73;32.58
68508;BME280;55510;49.560;19.090;2023-03-18T17:26:26;96539.69;;;7.64;32.25
68508;BME280;55510;49.560;19.090;2023-03-18T17:29:29;96549.41;;;7.52;32.68
68508;BME280;55510;49.560;19.090;2023-03-18T17:32:29;96551.44;;;7.50;32.74
68508;BME280;55510;49.560;19.090;2023-03-18T17:35:30;96560.34;;;7.37;33.20
68508;BME280;55510;49.560;19.090;2023-03-18T17:38:31;96559.22;;;7.26;34.40
68508;BME280;55510;49.560;19.090;2023-03-18T17:41:37;96562.19;;;7.11;35.38
68508;BME280;55510;49.560;19.090;2023-03-18T17:44:38;96568.19;;;7.00;35.04
68508;BME280;55510;49.560;19.090;2023-03-18T17:47:39;96566.03;;;6.90;35.59
68508;BME280;55510;49.560;19.090;2023-03-18T17:50:40;96573.84;;;6.78;36.01
68508;BME280;55510;49.560;19.090;2023-03-18T17:53:55;96580.88;;;6.59;36.81
68508;BME280;55510;49.560;19.090;2023-03-18T17:56:56;96577.31;;;6.39;37.63
68508;BME280;55510;49.560;19.090;2023-03-18T17:59:57;96578.00;;;6.28;37.61
68508;BME280;55510;49.560;19.090;2023-03-18T18:02:58;96578.44;;;6.18;38.05
68508;BME280;55510;49.560;19.090;2023-03-18T18:05:59;96578.31;;;6.06;38.37
68508;BME280;55510;49.560;19.090;2023-03-18T18:09:00;96576.25;;;5.95;38.80
68508;BME280;55510;49.560;19.090;2023-03-18T18:12:01;96577.16;;;5.82;38.85
68508;BME280;55510;49.560;19.090;2023-03-18T18:15:03;96583.03;;;5.77;39.02
68508;BME280;55510;49.560;19.090;2023-03-18T18:18:12;96581.84;;;5.66;39.41
68508;BME280;55510;49.560;19.090;2023-03-18T18:21:15;96576.59;;;5.53;40.15
68508;BME280;55510;49.560;19.090;2023-03-18T18:24:26;96570.53;;;5.46;40.57
68508;BME280;55510;49.560;19.090;2023-03-18T18:27:27;96578.47;;;5.32;41.34
68508;BME280;55510;49.560;19.090;2023-03-18T18:30:28;96574.63;;;5.15;41.93
68508;BME280;55510;49.560;19.090;2023-03-18T18:33:32;96579.91;;;5.01;42.88
68508;BME280;55510;49.560;19.090;2023-03-18T18:36:33;96574.84;;;4.93;43.29
68508;BME280;55510;49.560;19.090;2023-03-18T18:39:33;96582.94;;;4.85;43.72
68508;BME280;55510;49.560;19.090;2023-03-18T18:42:37;96574.59;;;4.74;43.43
68508;BME280;55510;49.560;19.090;2023-03-18T18:45:37;96578.06;;;4.68;44.29
68508;BME280;55510;49.560;19.090;2023-03-18T18:48:38;96581.50;;;4.62;44.27
68508;BME280;55510;49.560;19.090;2023-03-18T18:51:40;96581.28;;;4.57;44.88
68508;BME280;55510;49.560;19.090;2023-03-18T18:54:40;96578.03;;;4.48;45.81
68508;BME280;55510;49.560;19.090;2023-03-18T18:57:41;96587.91;;;4.39;45.77
68508;BME280;55510;49.560;19.090;2023-03-18T19:00:46;96585.47;;;4.31;45.93
68508;BME280;55510;49.560;19.090;2023-03-18T19:03:48;96582.00;;;4.24;47.29
68508;BME280;55510;49.560;19.090;2023-03-18T19:06:52;96594.13;;;4.18;46.67
68508;BME280;55510;49.560;19.090;2023-03-18T19:09:53;96591.69;;;4.10;47.16
68508;BME280;55510;49.560;19.090;2023-03-18T19:12:54;96593.69;;;4.01;46.84
68508;BME280;55510;49.560;19.090;2023-03-18T19:15:56;96594.22;;;3.89;47.52
68508;BME280;55510;49.560;19.090;2023-03-18T19:18:59;96600.88;;;3.79;47.55
68508;BME280;55510;49.560;19.090;2023-03-18T19:21:59;96599.22;;;3.71;48.46
68508;BME280;55510;49.560;19.090;2023-03-18T19:25:00;96607.66;;;3.59;48.57
68508;BME280;55510;49.560;19.090;2023-03-18T19:28:01;96613.41;;;3.41;49.64
68508;BME280;55510;49.560;19.090;2023-03-18T19:31:03;96609.00;;;3.20;49.90
68508;BME280;55510;49.560;19.090;2023-03-18T19:34:13;96609.66;;;3.00;50.80
68508;BME280;55510;49.560;19.090;2023-03-18T19:40:29;96613.06;;;2.72;51.70
68508;BME280;55510;49.560;19.090;2023-03-18T19:43:31;96619.00;;;2.59;52.35
68508;BME280;55510;49.560;19.090;2023-03-18T19:46:35;96624.38;;;2.51;52.09
68508;BME280;55510;49.560;19.090;2023-03-18T19:49:38;96624.13;;;2.46;52.60
68508;BME280;55510;49.560;19.090;2023-03-18T19:52:38;96625.28;;;2.43;52.74
68508;BME280;55510;49.560;19.090;2023-03-18T19:55:40;96625.78;;;2.32;53.30
68508;BME280;55510;49.560;19.090;2023-03-18T19:58:41;96627.53;;;2.25;53.84
68508;BME280;55510;49.560;19.090;2023-03-18T20:01:41;96635.94;;;2.20;53.90
68508;BME280;55510;49.560;19.090;2023-03-18T20:04:42;96621.47;;;2.09;54.29
68508;BME280;55510;49.560;19.090;2023-03-18T20:07:44;96636.16;;;2.03;54.91
68508;BME280;55510;49.560;19.090;2023-03-18T20:10:45;96636.59;;;1.92;55.78
68508;BME280;55510;49.560;19.090;2023-03-18T20:13:46;96632.81;;;1.80;55.84
68508;BME280;55510;49.560;19.090;2023-03-18T20:16:47;96636.91;;;1.67;56.62
68508;BME280;55510;49.560;19.090;2023-03-18T20:19:49;96648.47;;;1.58;56.92
68508;BME280;55510;49.560;19.090;2023-03-18T20:22:51;96641.94;;;1.54;57.14
68508;BME280;55510;49.560;19.090;2023-03-18T20:25:53;96643.59;;;1.55;57.03
68508;BME280;55510;49.560;19.090;2023-03-18T20:28:54;96645.75;;;1.51;56.93
68508;BME280;55510;49.560;19.090;2023-03-18T20:31:55;96646.28;;;1.47;57.12
68508;BME280;55510;49.560;19.090;2023-03-18T20:34:58;96643.38;;;1.41;57.43
68508;BME280;55510;49.560;19.090;2023-03-18T20:38:04;96637.78;;;1.44;57.16
68508;BME280;55510;49.560;19.090;2023-03-18T20:41:05;96639.31;;;1.39;57.51
68508;BME280;55510;49.560;19.090;2023-03-18T20:44:10;96635.31;;;1.28;58.56
68508;BME280;55510;49.560;19.090;2023-03-18T20:47:12;96645.06;;;1.19;58.81
68508;BME280;55510;49.560;19.090;2023-03-18T20:50:20;96642.16;;;1.14;59.18
68508;BME280;55510;49.560;19.090;2023-03-18T20:53:24;96648.91;;;1.08;59.29
68508;BME280;55510;49.560;19.090;2023-03-18T20:56:25;96646.81;;;1.04;59.51
68508;BME280;55510;49.560;19.090;2023-03-18T20:59:26;96643.94;;;0.98;60.15
68508;BME280;55510;49.560;19.090;2023-03-18T21:02:32;96653.78;;;0.96;59.98
68508;BME280;55510;49.560;19.090;2023-03-18T21:05:34;96651.16;;;0.96;60.17
68508;BME280;55510;49.560;19.090;2023-03-18T21:08:35;96657.38;;;0.95;59.92
68508;BME280;55510;49.560;19.090;2023-03-18T21:11:36;96654.91;;;0.94;60.33
68508;BME280;55510;49.560;19.090;2023-03-18T21:14:37;96655.91;;;0.93;60.10
68508;BME280;55510;49.560;19.090;2023-03-18T21:17:38;96653.81;;;0.88;60.90
68508;BME280;55510;49.560;19.090;2023-03-18T21:20:39;96656.34;;;0.81;61.39
68508;BME280;55510;49.560;19.090;2023-03-18T21:23:40;96651.94;;;0.74;62.11
68508;BME280;55510;49.560;19.090;2023-03-18T21:26:41;96649.03;;;0.68;62.08
68508;BME280;55510;49.560;19.090;2023-03-18T21:29:41;96645.94;;;0.65;62.51
68508;BME280;55510;49.560;19.090;2023-03-18T21:32:44;96645.94;;;0.65;62.00
68508;BME280;55510;49.560;19.090;2023-03-18T21:35:45;96653.34;;;0.61;62.08
68508;BME280;55510;49.560;19.090;2023-03-18T21:38:46;96648.81;;;0.55;62.71
68508;BME280;55510;49.560;19.090;2023-03-18T21:41:47;96651.94;;;0.50;62.86
68508;BME280;55510;49.560;19.090;2023-03-18T21:44:48;96643.00;;;0.45;63.33
68508;BME280;55510;49.560;19.090;2023-03-18T21:47:48;96639.88;;;0.41;63.46
68508;BME280;55510;49.560;19.090;2023-03-18T21:50:52;96637.63;;;0.38;63.30
68508;BME280;55510;49.560;19.090;2023-03-18T21:53:53;96640.72;;;0.33;63.29
68508;BME280;55510;49.560;19.090;2023-03-18T21:56:54;96646.97;;;0.32;63.46
68508;BME280;55510;49.560;19.090;2023-03-18T21:59:55;96647.66;;;0.26;63.32
68508;BME280;55510;49.560;19.090;2023-03-18T22:02:56;96653.72;;;0.18;63.64
68508;BME280;55510;49.560;19.090;2023-03-18T22:05:56;96655.75;;;0.08;64.22
68508;BME280;55510;49.560;19.090;2023-03-18T22:08:57;96656.63;;;0.00;64.60
68508;BME280;55510;49.560;19.090;2023-03-18T22:11:58;96657.91;;;-0.04;65.33
68508;BME280;55510;49.560;19.090;2023-03-18T22:14:59;96658.91;;;-0.05;65.33
68508;BME280;55510;49.560;19.090;2023-03-18T22:17:59;96656.97;;;-0.11;65.79
68508;BME280;55510;49.560;19.090;2023-03-18T22:21:00;96655.97;;;-0.10;65.71
68508;BME280;55510;49.560;19.090;2023-03-18T22:24:01;96653.38;;;-0.10;65.77
68508;BME280;55510;49.560;19.090;2023-03-18T22:27:02;96652.56;;;-0.11;66.07
68508;BME280;55510;49.560;19.090;2023-03-18T22:30:02;96655.63;;;-0.07;65.75
68508;BME280;55510;49.560;19.090;2023-03-18T22:33:04;96653.03;;;-0.07;65.07
68508;BME280;55510;49.560;19.090;2023-03-18T22:36:05;96649.25;;;-0.05;64.86
68508;BME280;55510;49.560;19.090;2023-03-18T22:39:07;96650.91;;;-0.04;64.97
68508;BME280;55510;49.560;19.090;2023-03-18T22:42:10;96646.94;;;0.01;64.34
68508;BME280;55510;49.560;19.090;2023-03-18T22:45:39;96650.25;;;-0.06;64.87
68508;BME280;55510;49.560;19.090;2023-03-18T22:48:40;96655.50;;;-0.14;65.78
68508;BME280;55510;49.560;19.090;2023-03-18T22:51:41;96658.31;;;-0.24;66.07
68508;BME280;55510;49.560;19.090;2023-03-18T22:54:44;96660.63;;;-0.29;66.24
68508;BME280;55510;49.560;19.090;2023-03-18T22:57:45;96649.50;;;-0.31;66.53
68508;BME280;55510;49.560;19.090;2023-03-18T23:00:46;96647.38;;;-0.36;66.76
68508;BME280;55510;49.560;19.090;2023-03-18T23:03:47;96664.59;;;-0.41;67.16
68508;BME280;55510;49.560;19.090;2023-03-18T23:06:48;96659.00;;;-0.47;66.88
68508;BME280;55510;49.560;19.090;2023-03-18T23:09:48;96660.34;;;-0.51;67.22
68508;BME280;55510;49.560;19.090;2023-03-18T23:12:49;96660.34;;;-0.59;68.18
68508;BME280;55510;49.560;19.090;2023-03-18T23:15:50;96658.91;;;-0.62;68.06
68508;BME280;55510;49.560;19.090;2023-03-18T23:18:51;96655.78;;;-0.65;68.42
68508;BME280;55510;49.560;19.090;2023-03-18T23:21:52;96662.81;;;-0.74;69.07
